createdAt,value
2022-12-06T17:49:18.571Z,5.98
2022-12-06T17:50:18.388Z,5.98
2022-12-06T17:51:18.332Z,5.95
2022-12-06T17:52:18.283Z,5.98
2022-12-06T17:53:18.223Z,6.01
2022-12-06T17:54:18.174Z,5.99
2022-12-06T17:55:18.120Z,5.99
2022-12-06T17:56:18.124Z,5.97
2022-12-06T17:57:18.057Z,6.02
2022-12-06T17:58:18.007Z,6.01
2022-12-06T17:59:17.941Z,6.10
2022-12-06T18:00:17.908Z,6.12
2022-12-06T18:01:17.928Z,6.13
2022-12-06T18:02:18.715Z,6.16
2022-12-06T18:03:17.836Z,6.09
2022-12-06T18:04:17.702Z,6.13
2022-12-06T18:05:17.661Z,6.13
2022-12-06T18:06:17.602Z,6.17
2022-12-06T18:07:17.564Z,6.17
2022-12-06T18:08:17.873Z,6.13
2022-12-06T18:09:17.463Z,6.12
2022-12-06T18:10:17.448Z,6.25
2022-12-06T18:11:17.362Z,6.26
2022-12-06T18:12:17.311Z,6.31
2022-12-06T18:13:17.251Z,6.31
2022-12-06T18:14:17.281Z,6.25
2022-12-06T18:15:17.357Z,6.28
2022-12-06T18:16:17.166Z,6.34
2022-12-06T18:17:17.061Z,6.28
2022-12-06T18:18:17.024Z,6.36
2022-12-06T18:19:17.180Z,6.43
2022-12-06T18:20:16.925Z,6.43
2022-12-06T18:21:16.890Z,6.41
2022-12-06T18:22:16.826Z,6.39
2022-12-06T18:23:17.097Z,6.46
2022-12-06T18:24:22.142Z,6.46
2022-12-06T18:25:16.693Z,6.47
2022-12-06T18:26:16.630Z,6.50
2022-12-06T18:27:16.578Z,6.46
2022-12-06T18:28:16.562Z,6.54
2022-12-06T18:29:16.492Z,6.52
2022-12-06T18:30:16.446Z,6.52
2022-12-06T18:31:16.500Z,6.53
2022-12-06T18:32:16.451Z,6.57
2022-12-06T18:33:20.740Z,6.62
2022-12-06T18:34:16.351Z,6.71
2022-12-06T18:35:16.228Z,6.70
2022-12-06T18:36:16.168Z,6.70
2022-12-06T18:37:16.150Z,6.71
2022-12-06T18:38:16.068Z,6.68
2022-12-06T18:39:16.423Z,6.68
2022-12-06T18:40:16.004Z,6.67
2022-12-06T18:41:15.965Z,6.74
2022-12-06T18:42:15.899Z,6.64
2022-12-06T18:44:09.260Z,6.71
2022-12-06T18:45:09.172Z,6.68
2022-12-06T18:46:09.178Z,6.77
2022-12-06T18:47:09.416Z,6.75
2022-12-06T18:48:09.047Z,6.77
2022-12-06T18:49:09.060Z,6.74
2022-12-06T18:50:10.382Z,6.78
2022-12-06T18:51:08.895Z,6.71
2022-12-06T18:52:08.892Z,6.77
2022-12-06T18:53:08.845Z,6.80
2022-12-06T18:54:08.858Z,6.82
2022-12-06T18:55:08.747Z,6.86
2022-12-06T18:56:08.670Z,6.80
2022-12-06T18:57:08.638Z,6.82
2022-12-06T18:58:08.588Z,6.82
